createdAt,value
2022-07-30T00:01:42.764Z,97701.00
2022-07-30T00:04:10.439Z,97704.59
2022-07-30T00:06:40.121Z,97706.78
2022-07-30T00:09:07.908Z,97713.78
2022-07-30T00:11:35.758Z,97709.28
2022-07-30T00:14:03.429Z,97714.28
2022-07-30T00:16:30.969Z,97721.59
2022-07-30T00:18:58.623Z,97721.66
2022-07-30T00:21:36.320Z,97720.97
2022-07-30T00:24:08.836Z,97718.34
2022-07-30T00:26:36.593Z,97722.66
2022-07-30T00:29:05.068Z,97722.13
2022-07-30T00:31:33.544Z,97734.09
2022-07-30T00:34:01.140Z,97735.19
2022-07-30T00:36:28.737Z,97729.00
2022-07-30T00:38:56.698Z,97723.59
2022-07-30T00:41:26.377Z,97722.81
2022-07-30T00:43:53.875Z,97720.16
2022-07-30T00:46:21.450Z,97723.22
2022-07-30T00:48:49.185Z,97728.66
2022-07-30T00:51:16.867Z,97724.94
2022-07-30T00:53:44.448Z,97715.50
2022-07-30T00:56:11.977Z,97717.41
2022-07-30T00:58:39.944Z,97715.84
2022-07-30T01:01:07.514Z,97712.94
2022-07-30T01:03:35.136Z,97709.16
2022-07-30T01:06:02.756Z,97709.19
2022-07-30T01:08:30.307Z,97703.84
2022-07-30T01:10:57.884Z,97708.16
2022-07-30T01:13:25.483Z,97700.06
2022-07-30T01:15:54.367Z,97695.81
2022-07-30T01:18:24.366Z,97697.44
2022-07-30T01:21:12.507Z,97703.63
2022-07-30T01:23:45.769Z,97706.34
2022-07-30T01:26:17.994Z,97705.28
2022-07-30T01:28:56.207Z,97703.75
2022-07-30T01:31:26.967Z,97699.22
2022-07-30T01:33:56.923Z,97694.59
2022-07-30T01:36:28.637Z,97689.47
2022-07-30T01:38:58.396Z,97687.31
2022-07-30T01:41:26.925Z,97683.53
2022-07-30T01:43:55.997Z,97682.25
2022-07-30T01:46:25.284Z,97687.63
2022-07-30T01:48:56.196Z,97683.06
2022-07-30T01:51:26.467Z,97683.59
2022-07-30T01:54:02.037Z,97683.06
2022-07-30T01:56:31.613Z,97684.78
2022-07-30T01:59:04.935Z,97680.19
2022-07-30T02:01:32.937Z,97683.41
2022-07-30T02:04:03.188Z,97687.22
2022-07-30T02:06:42.528Z,97687.50
2022-07-30T02:09:20.283Z,97689.41
2022-07-30T02:12:26.817Z,97698.03
2022-07-30T02:15:07.384Z,97697.22
2022-07-30T02:18:00.578Z,97701.53
2022-07-30T02:20:31.965Z,97703.09
2022-07-30T02:23:10.266Z,97704.19
2022-07-30T02:25:43.948Z,97706.09
2022-07-30T02:28:14.748Z,97710.16
2022-07-30T02:30:53.697Z,97712.06
2022-07-30T02:33:33.497Z,97716.13
2022-07-30T02:36:03.796Z,97715.00
2022-07-30T02:38:40.287Z,97716.94
2022-07-30T02:41:10.420Z,97719.09
2022-07-30T02:43:41.710Z,97713.19
2022-07-30T02:46:13.602Z,97713.75
2022-07-30T02:49:02.515Z,97715.13
2022-07-30T02:51:31.874Z,97718.88
2022-07-30T02:54:04.138Z,97721.91
2022-07-30T02:56:33.864Z,97709.81
2022-07-30T02:59:03.277Z,97709.03
2022-07-30T03:01:32.504Z,97706.88
2022-07-30T03:04:01.764Z,97713.06
2022-07-30T03:06:31.217Z,97710.66
2022-07-30T03:09:03.347Z,97717.13
2022-07-30T03:11:33.276Z,97718.22
2022-07-30T03:14:02.566Z,97719.25
2022-07-30T03:16:34.825Z,97703.41
2022-07-30T03:19:05.315Z,97705.06
2022-07-30T03:21:35.733Z,97704.25
2022-07-30T03:24:06.748Z,97708.81
2022-07-30T03:26:36.616Z,97707.22
2022-07-30T03:29:05.407Z,97708.31
2022-07-30T03:31:36.462Z,97707.22
2022-07-30T03:34:10.129Z,97713.97
2022-07-30T03:36:41.739Z,97715.38
2022-07-30T03:39:10.383Z,97719.13
2022-07-30T03:41:39.637Z,97714.28
2022-07-30T03:44:11.778Z,97709.69
2022-07-30T03:46:41.397Z,97711.34
2022-07-30T03:49:11.084Z,97704.59
2022-07-30T03:51:43.706Z,97711.59
2022-07-30T03:54:13.757Z,97707.84
2022-07-30T03:56:42.438Z,97706.81
2022-07-30T03:59:35.907Z,97699.84
2022-07-30T04:02:04.022Z,97697.69
2022-07-30T04:04:53.438Z,97697.16
2022-07-30T04:07:21.716Z,97692.88
2022-07-30T04:09:49.184Z,97682.94
2022-07-30T04:12:32.194Z,97680.53
2022-07-30T04:15:00.036Z,97681.34
2022-07-30T04:17:46.742Z,97679.47
2022-07-30T04:20:26.146Z,97674.63
2022-07-30T04:22:55.043Z,97685.94
2022-07-30T04:25:24.572Z,97685.69
2022-07-30T04:28:03.186Z,97686.75
2022-07-30T04:30:35.084Z,97687.03
2022-07-30T04:33:05.726Z,97678.94
2022-07-30T04:35:56.378Z,97685.94
2022-07-30T04:38:30.593Z,97681.41
2022-07-30T04:40:58.355Z,97687.03
2022-07-30T04:43:28.714Z,97683.53
2022-07-30T04:45:56.350Z,97679.22
2022-07-30T04:48:26.948Z,97675.69
2022-07-30T04:51:23.626Z,97686.19
2022-07-30T04:53:54.049Z,97681.84
2022-07-30T04:56:22.987Z,97685.31
2022-07-30T04:58:53.267Z,97692.31
2022-07-30T05:01:40.229Z,97696.03
2022-07-30T05:04:10.999Z,97691.66
2022-07-30T05:06:40.766Z,97694.63
2022-07-30T05:09:09.120Z,97692.16
2022-07-30T05:11:36.774Z,97688.88
2022-07-30T05:14:04.394Z,97683.19
2022-07-30T05:16:34.207Z,97683.69
2022-07-30T05:19:07.723Z,97685.28
2022-07-30T05:21:37.902Z,97693.66
2022-07-30T05:24:06.331Z,97699.66
2022-07-30T05:26:49.859Z,97690.19
2022-07-30T05:29:20.306Z,97691.50
2022-07-30T05:31:52.456Z,97688.56
2022-07-30T05:34:23.211Z,97686.16
2022-07-30T05:36:52.548Z,97686.72
2022-07-30T05:39:20.959Z,97683.75
2022-07-30T05:42:12.064Z,97684.84
2022-07-30T05:44:52.126Z,97678.38
2022-07-30T05:47:21.313Z,97689.13
2022-07-30T05:49:51.710Z,97688.56
2022-07-30T05:52:19.557Z,97685.06
2022-07-30T05:54:53.131Z,97701.75
2022-07-30T05:57:51.361Z,97706.03
2022-07-30T06:00:19.111Z,97704.66
2022-07-30T06:02:51.741Z,97713.03
2022-07-30T06:05:37.801Z,97714.09
2022-07-30T06:08:07.142Z,97723.47
2022-07-30T06:10:34.992Z,97724.88
2022-07-30T06:13:02.883Z,97722.44
2022-07-30T06:15:30.538Z,97734.88
2022-07-30T06:18:01.917Z,97727.34
2022-07-30T06:20:47.041Z,97738.69
2022-07-30T06:23:21.727Z,97736.16
2022-07-30T06:26:09.469Z,97733.75
2022-07-30T06:28:38.829Z,97741.47
2022-07-30T06:31:15.504Z,97736.66
2022-07-30T06:33:43.577Z,97739.88
2022-07-30T06:36:13.976Z,97736.06
2022-07-30T06:39:53.882Z,97745.50
2022-07-30T06:42:15.348Z,97744.59
2022-07-30T06:45:02.851Z,97748.84
2022-07-30T06:47:50.321Z,97748.59
2022-07-30T06:50:20.431Z,97747.69
2022-07-30T06:52:47.979Z,97747.72
2022-07-30T06:55:15.701Z,97752.94
2022-07-30T06:57:48.319Z,97746.81
2022-07-30T07:00:36.045Z,97750.53
2022-07-30T07:03:11.792Z,97756.41
2022-07-30T07:05:39.912Z,97757.78
2022-07-30T07:08:07.370Z,97761.03
2022-07-30T07:10:39.122Z,97757.06
2022-07-30T07:13:14.261Z,97764.91
2022-07-30T07:15:42.438Z,97760.03
2022-07-30T07:18:15.533Z,97761.09
2022-07-30T07:20:50.831Z,97758.13
2022-07-30T07:23:19.912Z,97759.47
2022-07-30T07:25:50.361Z,97762.66
2022-07-30T07:28:18.212Z,97765.84
2022-07-30T07:30:46.035Z,97762.25
2022-07-30T07:33:15.710Z,97769.78
2022-07-30T07:35:49.768Z,97767.03
2022-07-30T07:38:28.451Z,97763.00
2022-07-30T07:40:57.840Z,97770.00
2022-07-30T07:43:25.583Z,97765.38
2022-07-30T07:45:56.199Z,97763.19
2022-07-30T07:48:24.527Z,97765.88
2022-07-30T07:51:00.052Z,97771.09
2022-07-30T07:53:30.695Z,97770.00
2022-07-30T07:55:59.816Z,97774.38
2022-07-30T07:58:27.569Z,97765.19
2022-07-30T08:01:02.505Z,97765.69
2022-07-30T08:03:50.048Z,97769.78
2022-07-30T08:06:36.816Z,97773.00
2022-07-30T08:09:23.148Z,97774.56
2022-07-30T08:12:10.798Z,97780.97
2022-07-30T08:14:58.636Z,97775.28
2022-07-30T08:17:49.293Z,97775.56
2022-07-30T08:20:20.244Z,97775.81
2022-07-30T08:22:47.997Z,97780.13
2022-07-30T08:25:22.399Z,97779.38
2022-07-30T08:27:52.582Z,97777.53
2022-07-30T08:30:21.377Z,97783.81
2022-07-30T08:32:49.244Z,97778.75
2022-07-30T08:35:16.806Z,97777.09
2022-07-30T08:37:44.766Z,97777.44
2022-07-30T08:40:12.588Z,97778.00
2022-07-30T08:42:53.016Z,97783.44
2022-07-30T08:45:21.518Z,97781.03
2022-07-30T08:48:33.547Z,97786.13
2022-07-30T08:51:02.456Z,97784.75
2022-07-30T08:53:57.968Z,97788.81
2022-07-30T08:56:25.718Z,97780.75
2022-07-30T08:58:53.587Z,97780.22
2022-07-30T09:01:22.956Z,97776.22
2022-07-30T09:03:50.488Z,97775.97
2022-07-30T09:06:18.227Z,97786.22
2022-07-30T09:08:45.986Z,97794.88
2022-07-30T09:11:14.188Z,97789.47
2022-07-30T09:13:43.056Z,97787.31
2022-07-30T09:16:27.057Z,97784.66
2022-07-30T09:19:21.930Z,97791.13
2022-07-30T09:22:01.425Z,97783.06
2022-07-30T09:24:58.027Z,97786.00
2022-07-30T09:27:49.297Z,97781.38
2022-07-30T09:30:54.021Z,97783.53
2022-07-30T09:33:41.186Z,97791.59
2022-07-30T09:36:32.062Z,97787.59
2022-07-30T09:39:36.054Z,97793.84
2022-07-30T09:42:25.920Z,97795.78
2022-07-30T09:45:12.673Z,97797.44
2022-07-30T09:47:45.616Z,97788.06
2022-07-30T09:50:18.080Z,97797.78
2022-07-30T09:53:11.831Z,97804.53
2022-07-30T09:55:42.786Z,97799.69
2022-07-30T09:58:12.964Z,97807.78
2022-07-30T10:00:45.098Z,97799.41
2022-07-30T10:03:41.827Z,97805.09
2022-07-30T10:06:41.813Z,97808.31
2022-07-30T10:09:37.504Z,97815.34
2022-07-30T10:12:11.370Z,97809.69
2022-07-30T10:14:45.830Z,97810.25
2022-07-30T10:17:18.155Z,97813.97
2022-07-30T10:19:56.934Z,97813.16
2022-07-30T10:22:53.924Z,97811.22
2022-07-30T10:25:27.873Z,97818.28
2022-07-30T10:28:16.442Z,97823.16
2022-07-30T10:30:45.404Z,97821.25
2022-07-30T10:33:36.280Z,97827.78
2022-07-30T10:36:02.482Z,97824.34
2022-07-30T10:38:39.261Z,97828.13
2022-07-30T10:41:22.058Z,97826.81
2022-07-30T10:44:05.315Z,97831.97
2022-07-30T10:46:57.469Z,97836.81
2022-07-30T10:49:26.161Z,97838.44
2022-07-30T10:51:57.460Z,97841.94
2022-07-30T10:54:36.568Z,97840.59
2022-07-30T10:57:32.966Z,97844.91
2022-07-30T11:00:10.030Z,97844.13
2022-07-30T11:02:39.973Z,97842.75
2022-07-30T11:05:37.522Z,97836.53
2022-07-30T11:08:31.857Z,97845.16
2022-07-30T11:12:01.214Z,97838.91
2022-07-30T11:14:12.988Z,97832.69
2022-07-30T11:16:40.693Z,97840.47
2022-07-30T11:19:56.877Z,97833.41
2022-07-30T11:22:25.593Z,97821.50
2022-07-30T11:24:53.812Z,97824.13
2022-07-30T11:27:41.506Z,97824.56
2022-07-30T11:30:23.549Z,97824.34
2022-07-30T11:32:57.059Z,97819.75
2022-07-30T11:35:34.688Z,97828.09
2022-07-30T11:38:19.060Z,97821.69
2022-07-30T11:40:46.853Z,97811.50
2022-07-30T11:43:17.770Z,97811.13
2022-07-30T11:45:50.361Z,97815.31
2022-07-30T11:48:19.421Z,97818.00
2022-07-30T11:50:48.381Z,97819.09
2022-07-30T11:53:21.433Z,97812.72
2022-07-30T11:55:57.840Z,97808.28
2022-07-30T11:58:34.861Z,97811.59
2022-07-30T12:01:11.837Z,97814.09
2022-07-30T12:03:44.884Z,97813.97
2022-07-30T12:06:20.360Z,97816.47
2022-07-30T12:08:53.950Z,97820.44
2022-07-30T12:11:25.061Z,97810.50
2022-07-30T12:14:00.307Z,97811.50
2022-07-30T12:16:29.162Z,97812.28
2022-07-30T12:19:02.314Z,97817.03
2022-07-30T12:21:29.913Z,97816.16
2022-07-30T12:24:02.621Z,97816.19
2022-07-30T12:26:32.630Z,97812.31
2022-07-30T12:29:13.744Z,97815.75
2022-07-30T12:31:41.912Z,97815.03
2022-07-30T12:34:24.671Z,97808.22
2022-07-30T12:36:52.511Z,97812.63
2022-07-30T12:39:22.432Z,97814.56
2022-07-30T12:41:52.211Z,97804.41
2022-07-30T12:44:38.071Z,97810.25
2022-07-30T12:47:18.231Z,97809.34
2022-07-30T12:49:48.862Z,97806.63
2022-07-30T12:52:27.596Z,97812.66
2022-07-30T12:54:57.882Z,97807.44
2022-07-30T12:57:25.458Z,97809.25
2022-07-30T13:00:07.567Z,97804.97
2022-07-30T13:02:36.414Z,97803.41
2022-07-30T13:05:11.766Z,97810.31
2022-07-30T13:07:55.590Z,97809.59
2022-07-30T13:10:28.532Z,97808.28
2022-07-30T13:12:58.665Z,97819.66
2022-07-30T13:15:26.624Z,97824.28
2022-07-30T13:17:54.418Z,97817.75
2022-07-30T13:20:22.733Z,97813.94
2022-07-30T13:22:50.215Z,97813.44
2022-07-30T13:25:18.291Z,97815.84
2022-07-30T13:27:45.757Z,97807.69
2022-07-30T13:30:13.722Z,97817.31
2022-07-30T13:32:41.223Z,97822.31
2022-07-30T13:35:09.339Z,97821.16
2022-07-30T13:37:37.591Z,97817.75
2022-07-30T13:40:07.111Z,97822.78
2022-07-30T13:42:35.462Z,97818.34
2022-07-30T13:45:02.937Z,97821.75
2022-07-30T13:47:30.491Z,97820.00
2022-07-30T13:49:57.982Z,97834.84
2022-07-30T13:52:25.672Z,97842.50
2022-07-30T13:54:54.512Z,97837.97
2022-07-30T13:57:22.101Z,97842.72
2022-07-30T13:59:49.636Z,97834.19
2022-07-30T14:02:17.320Z,97835.94
2022-07-30T14:04:44.911Z,97830.25
2022-07-30T14:07:12.412Z,97832.22
2022-07-30T14:09:47.064Z,97830.63
2022-07-30T14:12:16.359Z,97833.34
2022-07-30T14:14:43.798Z,97836.78
2022-07-30T14:17:11.335Z,97842.41
2022-07-30T14:19:38.898Z,97837.78
2022-07-30T14:22:06.457Z,97834.78
2022-07-30T14:24:34.031Z,97838.66
2022-07-30T14:27:01.856Z,97843.47
2022-07-30T14:29:29.545Z,97843.25
2022-07-30T14:31:57.120Z,97842.19
2022-07-30T14:34:24.698Z,97847.28
2022-07-30T14:36:52.229Z,97851.19
2022-07-30T14:39:20.667Z,97842.66
2022-07-30T14:41:48.694Z,97855.47
2022-07-30T14:44:20.018Z,97850.81
2022-07-30T14:46:52.223Z,97848.06
2022-07-30T14:49:21.873Z,97846.41
2022-07-30T14:51:50.790Z,97849.81
2022-07-30T14:54:18.756Z,97847.84
2022-07-30T14:56:46.538Z,97852.91
2022-07-30T14:59:14.149Z,97856.59
2022-07-30T15:01:42.327Z,97850.06
2022-07-30T15:04:10.879Z,97854.00
2022-07-30T15:06:40.814Z,97844.63
2022-07-30T15:09:09.286Z,97848.63
2022-07-30T15:12:04.214Z,97843.34
2022-07-30T15:14:24.398Z,97850.31
2022-07-30T15:16:52.604Z,97842.63
2022-07-30T15:19:20.153Z,97852.66
2022-07-30T15:21:47.618Z,97865.88
2022-07-30T15:24:15.327Z,97854.78
2022-07-30T15:26:42.788Z,97862.22
2022-07-30T15:29:13.280Z,97852.78
2022-07-30T15:31:41.168Z,97854.63
2022-07-30T15:34:12.746Z,97848.56
2022-07-30T15:36:40.385Z,97865.03
2022-07-30T15:39:07.876Z,97859.03
2022-07-30T15:41:37.196Z,97872.09
2022-07-30T15:44:05.051Z,97880.03
2022-07-30T15:46:32.678Z,97880.63
2022-07-30T15:49:00.252Z,97870.25
2022-07-30T15:51:28.007Z,97877.38
2022-07-30T15:53:55.911Z,97865.66
2022-07-30T15:56:24.334Z,97866.19
2022-07-30T15:58:52.739Z,97867.00
2022-07-30T16:01:20.342Z,97869.66
2022-07-30T16:03:47.903Z,97864.81
2022-07-30T16:06:15.524Z,97865.03
2022-07-30T16:08:43.039Z,97862.13
2022-07-30T16:11:10.829Z,97857.28
2022-07-30T16:13:38.857Z,97862.03
2022-07-30T16:16:06.376Z,97869.00
2022-07-30T16:18:33.879Z,97869.06
2022-07-30T16:21:01.553Z,97864.28
2022-07-30T16:23:36.246Z,97868.25
2022-07-30T16:26:04.741Z,97871.88
2022-07-30T16:28:32.609Z,97868.97
2022-07-30T16:31:00.167Z,97873.78
2022-07-30T16:33:27.633Z,97877.38
2022-07-30T16:35:55.406Z,97873.22
2022-07-30T16:38:25.944Z,97877.72
2022-07-30T16:40:53.586Z,97887.31
2022-07-30T16:43:21.228Z,97884.72
2022-07-30T16:45:48.906Z,97883.19
2022-07-30T16:48:16.507Z,97885.75
2022-07-30T16:50:44.876Z,97894.28
2022-07-30T16:53:14.382Z,97890.22
2022-07-30T16:55:43.677Z,97893.63
2022-07-30T16:58:12.241Z,97894.72
2022-07-30T17:00:40.315Z,97893.72
2022-07-30T17:03:08.782Z,97899.53
2022-07-30T17:05:50.556Z,97900.44
2022-07-30T17:08:18.586Z,97898.44
2022-07-30T17:10:53.727Z,97909.38
2022-07-30T17:13:21.998Z,97915.09
2022-07-30T17:15:49.645Z,97910.06
2022-07-30T17:18:17.506Z,97920.34
2022-07-30T17:20:45.503Z,97914.97
2022-07-30T17:23:13.058Z,97916.03
2022-07-30T17:25:40.687Z,97922.56
2022-07-30T17:28:08.547Z,97921.47
2022-07-30T17:30:36.125Z,97926.09
2022-07-30T17:33:06.421Z,97919.88
2022-07-30T17:35:34.358Z,97920.91
2022-07-30T17:38:02.226Z,97919.28
2022-07-30T17:40:31.792Z,97918.22
2022-07-30T17:43:04.407Z,97926.84
2022-07-30T17:45:33.709Z,97922.00
2022-07-30T17:48:04.110Z,97931.19
2022-07-30T17:50:32.953Z,97929.28
2022-07-30T17:53:03.715Z,97930.06
2022-07-30T17:55:35.264Z,97933.88
2022-07-30T17:58:06.280Z,97941.44
2022-07-30T18:00:35.566Z,97939.81
2022-07-30T18:03:03.822Z,97943.88
2022-07-30T18:05:31.535Z,97946.31
2022-07-30T18:07:59.209Z,97939.78
2022-07-30T18:10:26.766Z,97946.28
2022-07-30T18:12:54.377Z,97935.22
2022-07-30T18:15:22.177Z,97944.13
2022-07-30T18:17:49.713Z,97944.75
2022-07-30T18:20:17.416Z,97949.06
2022-07-30T18:22:45.067Z,97957.25
2022-07-30T18:25:18.534Z,97949.72
2022-07-30T18:27:48.198Z,97956.78
2022-07-30T18:30:16.116Z,97958.47
2022-07-30T18:32:46.698Z,97961.19
2022-07-30T18:35:15.358Z,97955.00
2022-07-30T18:37:44.298Z,97967.19
2022-07-30T18:40:13.726Z,97964.75
2022-07-30T18:42:42.064Z,97969.34
2022-07-30T18:45:13.883Z,97972.31
2022-07-30T18:47:42.842Z,97980.41
2022-07-30T18:50:12.367Z,97975.03
2022-07-30T18:52:40.427Z,97981.75
2022-07-30T18:55:11.453Z,97983.66
2022-07-30T18:57:39.503Z,97981.50
2022-07-30T19:00:10.247Z,97980.13
2022-07-30T19:02:58.126Z,97987.44
2022-07-30T19:05:25.746Z,97994.19
2022-07-30T19:07:57.169Z,97999.59
2022-07-30T19:10:26.657Z,97994.19
2022-07-30T19:12:55.780Z,98001.22
2022-07-30T19:15:23.770Z,98002.00
2022-07-30T19:17:51.925Z,98002.03
2022-07-30T19:20:20.268Z,97990.16
2022-07-30T19:22:47.986Z,98003.09
2022-07-30T19:25:18.255Z,97997.44
2022-07-30T19:27:45.899Z,97999.31
2022-07-30T19:30:13.665Z,97997.41
2022-07-30T19:32:41.373Z,97995.22
2022-07-30T19:35:13.615Z,98001.16
2022-07-30T19:37:42.757Z,98002.75
2022-07-30T19:40:10.935Z,98001.94
2022-07-30T19:42:41.415Z,98001.16
2022-07-30T19:45:13.075Z,98005.97
2022-07-30T19:47:42.572Z,97999.22
2022-07-30T19:50:11.495Z,98004.56
2022-07-30T19:52:50.973Z,98011.56
2022-07-30T19:55:31.110Z,98008.84
2022-07-30T19:58:15.945Z,98008.06
2022-07-30T20:00:49.248Z,98008.84
2022-07-30T20:03:26.257Z,98004.56
2022-07-30T20:06:01.028Z,98008.06
2022-07-30T20:08:28.664Z,98005.09
2022-07-30T20:11:07.513Z,98007.50
2022-07-30T20:13:45.185Z,98005.88
2022-07-30T20:16:15.846Z,98003.69
2022-07-30T20:18:46.089Z,98003.66
2022-07-30T20:21:16.044Z,97998.53
2022-07-30T20:23:45.130Z,97992.56
2022-07-30T20:26:14.923Z,98006.28
2022-07-30T20:28:44.935Z,97999.81
2022-07-30T20:31:14.602Z,98002.22
2022-07-30T20:33:43.031Z,98008.13
2022-07-30T20:36:12.474Z,98000.56
2022-07-30T20:38:44.598Z,98008.59
2022-07-30T20:41:14.598Z,98011.00
2022-07-30T20:43:51.622Z,98004.78
2022-07-30T20:46:23.293Z,98000.72
2022-07-30T20:51:41.699Z,98008.50
2022-07-30T20:54:09.214Z,98004.44
2022-07-30T20:56:36.781Z,98007.41
2022-07-30T20:59:04.316Z,97997.16
2022-07-30T21:01:31.906Z,97995.53
2022-07-30T21:04:02.153Z,97999.81
2022-07-30T21:06:31.422Z,98003.78
2022-07-30T21:09:02.296Z,98010.78
2022-07-30T21:11:29.995Z,98012.09
2022-07-30T21:13:58.023Z,98011.81
2022-07-30T21:16:27.374Z,98009.34
2022-07-30T21:18:58.313Z,98007.44
2022-07-30T21:21:30.804Z,98001.47
2022-07-30T21:24:11.913Z,98006.03
2022-07-30T21:26:43.313Z,98005.50
2022-07-30T21:29:11.460Z,98004.94
2022-07-30T21:31:59.093Z,98006.81
2022-07-30T21:34:28.123Z,98011.06
2022-07-30T21:36:58.617Z,98005.97
2022-07-30T21:39:28.998Z,98014.03
2022-07-30T21:41:57.626Z,98009.97
2022-07-30T21:44:25.274Z,98014.78
2022-07-30T21:46:53.750Z,98019.84
2022-07-30T21:49:23.335Z,98022.53
2022-07-30T21:51:51.044Z,98026.88
2022-07-30T21:54:28.696Z,98029.84
2022-07-30T21:56:58.077Z,98028.22
2022-07-30T21:59:27.639Z,98030.09
2022-07-30T22:01:56.090Z,98025.00
2022-07-30T22:04:23.590Z,98022.25
2022-07-30T22:06:54.457Z,98023.06
2022-07-30T22:09:33.426Z,98020.38
2022-07-30T22:12:06.418Z,98025.44
2022-07-30T22:14:37.450Z,98023.03
2022-07-30T22:17:05.113Z,98012.00
2022-07-30T22:19:32.952Z,98019.00
2022-07-30T22:22:05.307Z,98017.16
2022-07-30T22:24:47.999Z,98010.44
2022-07-30T22:27:15.724Z,98009.31
2022-07-30T22:29:44.131Z,98021.69
2022-07-30T22:32:12.448Z,98017.66
2022-07-30T22:34:40.029Z,98006.91
2022-07-30T22:37:12.490Z,98015.22
2022-07-30T22:39:51.768Z,98007.16
2022-07-30T22:42:23.907Z,98012.19
2022-07-30T22:44:53.303Z,98007.56
2022-07-30T22:47:51.500Z,98011.31
2022-07-30T22:50:11.749Z,98002.22
2022-07-30T22:52:52.477Z,97998.94
2022-07-30T22:55:28.624Z,97996.47
2022-07-30T22:57:57.350Z,97996.19
2022-07-30T23:00:27.400Z,97997.19
2022-07-30T23:02:56.992Z,97996.94
2022-07-30T23:05:25.244Z,97994.00
2022-07-30T23:07:53.969Z,97983.25
2022-07-30T23:10:21.624Z,97981.38
2022-07-30T23:12:18.532Z,98008.25
2022-07-30T23:12:52.764Z,97979.75
2022-07-30T23:15:20.948Z,97976.53
2022-07-30T23:17:48.602Z,97978.63
2022-07-30T23:20:20.677Z,97976.47
2022-07-30T23:22:49.480Z,97970.28
2022-07-30T23:25:17.582Z,97968.41
2022-07-30T23:27:46.955Z,97972.97
2022-07-30T23:30:15.081Z,97967.03
2022-07-30T23:32:42.643Z,97969.41
2022-07-30T23:35:10.395Z,97962.69
2022-07-30T23:37:48.476Z,97962.69
2022-07-30T23:40:19.765Z,97962.38
2022-07-30T23:42:50.227Z,97960.19
2022-07-30T23:45:18.756Z,97960.75
2022-07-30T23:48:01.582Z,97959.63
2022-07-30T23:50:33.892Z,97961.47
2022-07-30T23:53:02.851Z,97963.59
2022-07-30T23:55:31.946Z,97969.53
2022-07-30T23:58:00.448Z,97968.19
